sensor_id;sensor_type;location;lat;lon;timestamp;temperature;humidity
26081;DHT22;13991;51.174;4.438;2022-07-25T00:00:33;26.30;84.30
26081;DHT22;13991;51.174;4.438;2022-07-25T00:02:59;26.20;84.50
26081;DHT22;13991;51.174;4.438;2022-07-25T00:05:25;26.20;85.10
26081;DHT22;13991;51.174;4.438;2022-07-25T00:07:51;26.20;85.10
26081;DHT22;13991;51.174;4.438;2022-07-25T00:10:17;26.10;85.60
26081;DHT22;13991;51.174;4.438;2022-07-25T00:12:43;26.10;86.60
26081;DHT22;13991;51.174;4.438;2022-07-25T00:15:09;26.00;86.30
26081;DHT22;13991;51.174;4.438;2022-07-25T00:17:35;26.00;87.00
26081;DHT22;13991;51.174;4.438;2022-07-25T00:20:01;26.00;86.40
26081;DHT22;13991;51.174;4.438;2022-07-25T00:22:28;26.00;86.10
26081;DHT22;13991;51.174;4.438;2022-07-25T00:24:54;25.90;86.30
26081;DHT22;13991;51.174;4.438;2022-07-25T00:27:20;25.90;86.80
26081;DHT22;13991;51.174;4.438;2022-07-25T00:29:46;25.90;87.00
26081;DHT22;13991;51.174;4.438;2022-07-25T00:32:12;25.90;87.30
26081;DHT22;13991;51.174;4.438;2022-07-25T00:34:38;25.80;87.60
26081;DHT22;13991;51.174;4.438;2022-07-25T00:37:04;25.70;87.40
26081;DHT22;13991;51.174;4.438;2022-07-25T00:39:30;25.40;88.60
26081;DHT22;13991;51.174;4.438;2022-07-25T00:41:56;25.40;88.10
26081;DHT22;13991;51.174;4.438;2022-07-25T00:44:30;25.30;89.70
26081;DHT22;13991;51.174;4.438;2022-07-25T00:46:58;25.10;89.20
26081;DHT22;13991;51.174;4.438;2022-07-25T00:49:24;25.00;90.40
26081;DHT22;13991;51.174;4.438;2022-07-25T00:51:52;25.10;90.50
26081;DHT22;13991;51.174;4.438;2022-07-25T00:54:19;25.00;90.50
26081;DHT22;13991;51.174;4.438;2022-07-25T00:56:47;25.00;90.50
26081;DHT22;13991;51.174;4.438;2022-07-25T00:59:14;25.00;91.10
26081;DHT22;13991;51.174;4.438;2022-07-25T01:01:45;24.90;91.10
26081;DHT22;13991;51.174;4.438;2022-07-25T01:04:13;25.00;91.50
26081;DHT22;13991;51.174;4.438;2022-07-25T01:06:39;24.80;91.40
26081;DHT22;13991;51.174;4.438;2022-07-25T01:09:05;24.70;91.20
26081;DHT22;13991;51.174;4.438;2022-07-25T01:11:32;24.90;91.80
26081;DHT22;13991;51.174;4.438;2022-07-25T01:13:57;24.80;91.90
26081;DHT22;13991;51.174;4.438;2022-07-25T01:16:23;24.70;91.70
26081;DHT22;13991;51.174;4.438;2022-07-25T01:18:49;24.70;91.90
26081;DHT22;13991;51.174;4.438;2022-07-25T01:21:15;24.80;92.70
26081;DHT22;13991;51.174;4.438;2022-07-25T01:23:41;24.80;92.70
26081;DHT22;13991;51.174;4.438;2022-07-25T01:26:07;24.90;92.80
26081;DHT22;13991;51.174;4.438;2022-07-25T01:28:33;24.80;92.70
26081;DHT22;13991;51.174;4.438;2022-07-25T01:30:59;24.80;92.50
26081;DHT22;13991;51.174;4.438;2022-07-25T01:33:24;24.70;93.10
26081;DHT22;13991;51.174;4.438;2022-07-25T01:35:50;24.70;93.40
26081;DHT22;13991;51.174;4.438;2022-07-25T01:38:17;24.70;93.50
26081;DHT22;13991;51.174;4.438;2022-07-25T01:40:43;24.70;93.60
26081;DHT22;13991;51.174;4.438;2022-07-25T01:43:09;24.70;93.80
26081;DHT22;13991;51.174;4.438;2022-07-25T01:45:35;24.70;94.00
26081;DHT22;13991;51.174;4.438;2022-07-25T01:48:01;24.70;93.90
26081;DHT22;13991;51.174;4.438;2022-07-25T01:50:26;24.60;94.10
26081;DHT22;13991;51.174;4.438;2022-07-25T01:52:52;24.60;94.50
26081;DHT22;13991;51.174;4.438;2022-07-25T01:55:18;24.60;94.80
26081;DHT22;13991;51.174;4.438;2022-07-25T01:57:44;24.60;95.20
26081;DHT22;13991;51.174;4.438;2022-07-25T02:00:11;24.50;95.30
26081;DHT22;13991;51.174;4.438;2022-07-25T02:02:41;24.50;95.50
26081;DHT22;13991;51.174;4.438;2022-07-25T02:05:08;24.40;96.00
26081;DHT22;13991;51.174;4.438;2022-07-25T02:07:34;24.40;96.10
26081;DHT22;13991;51.174;4.438;2022-07-25T02:10:00;24.40;96.30
26081;DHT22;13991;51.174;4.438;2022-07-25T02:12:26;24.40;96.40
26081;DHT22;13991;51.174;4.438;2022-07-25T02:14:52;24.40;96.60
26081;DHT22;13991;51.174;4.438;2022-07-25T02:17:17;24.40;96.60
26081;DHT22;13991;51.174;4.438;2022-07-25T02:19:43;24.30;96.70
26081;DHT22;13991;51.174;4.438;2022-07-25T02:22:09;24.20;97.10
26081;DHT22;13991;51.174;4.438;2022-07-25T02:24:35;24.20;97.50
26081;DHT22;13991;51.174;4.438;2022-07-25T02:27:02;24.20;98.00
26081;DHT22;13991;51.174;4.438;2022-07-25T02:29:28;24.10;98.00
26081;DHT22;13991;51.174;4.438;2022-07-25T02:31:54;24.10;98.40
26081;DHT22;13991;51.174;4.438;2022-07-25T02:34:20;24.20;98.30
26081;DHT22;13991;51.174;4.438;2022-07-25T02:36:45;24.10;98.20
26081;DHT22;13991;51.174;4.438;2022-07-25T02:39:11;24.20;98.20
26081;DHT22;13991;51.174;4.438;2022-07-25T02:41:37;24.10;98.30
26081;DHT22;13991;51.174;4.438;2022-07-25T02:44:04;24.20;99.10
26081;DHT22;13991;51.174;4.438;2022-07-25T02:46:29;24.20;98.90
26081;DHT22;13991;51.174;4.438;2022-07-25T02:48:55;24.10;99.60
26081;DHT22;13991;51.174;4.438;2022-07-25T02:51:21;24.10;99.40
26081;DHT22;13991;51.174;4.438;2022-07-25T02:53:47;24.20;99.70
26081;DHT22;13991;51.174;4.438;2022-07-25T02:56:13;24.20;99.70
26081;DHT22;13991;51.174;4.438;2022-07-25T02:58:38;24.20;99.50
26081;DHT22;13991;51.174;4.438;2022-07-25T03:01:04;24.20;99.50
26081;DHT22;13991;51.174;4.438;2022-07-25T03:03:30;24.20;99.80
26081;DHT22;13991;51.174;4.438;2022-07-25T03:05:55;24.20;99.30
26081;DHT22;13991;51.174;4.438;2022-07-25T03:08:21;24.20;99.50
26081;DHT22;13991;51.174;4.438;2022-07-25T03:10:47;24.10;99.60
26081;DHT22;13991;51.174;4.438;2022-07-25T03:13:12;24.00;99.70
26081;DHT22;13991;51.174;4.438;2022-07-25T03:15:38;23.90;99.90
26081;DHT22;13991;51.174;4.438;2022-07-25T03:18:04;23.60;99.90
26081;DHT22;13991;51.174;4.438;2022-07-25T03:20:29;23.40;99.90
26081;DHT22;13991;51.174;4.438;2022-07-25T03:22:55;23.50;99.90
26081;DHT22;13991;51.174;4.438;2022-07-25T03:25:20;23.50;99.90
26081;DHT22;13991;51.174;4.438;2022-07-25T03:27:46;23.40;99.90
26081;DHT22;13991;51.174;4.438;2022-07-25T03:30:12;23.40;99.90
26081;DHT22;13991;51.174;4.438;2022-07-25T03:32:38;23.30;99.90
26081;DHT22;13991;51.174;4.438;2022-07-25T03:35:04;23.40;99.90
26081;DHT22;13991;51.174;4.438;2022-07-25T03:37:30;23.60;99.90
26081;DHT22;13991;51.174;4.438;2022-07-25T03:39:56;23.60;99.90
26081;DHT22;13991;51.174;4.438;2022-07-25T03:42:22;23.40;99.90
26081;DHT22;13991;51.174;4.438;2022-07-25T03:44:48;23.30;99.90
26081;DHT22;13991;51.174;4.438;2022-07-25T03:47:14;23.30;99.90
26081;DHT22;13991;51.174;4.438;2022-07-25T03:49:40;23.10;99.90
26081;DHT22;13991;51.174;4.438;2022-07-25T03:52:06;23.00;99.90
26081;DHT22;13991;51.174;4.438;2022-07-25T03:54:31;22.90;99.90
26081;DHT22;13991;51.174;4.438;2022-07-25T03:56:57;23.00;99.90
26081;DHT22;13991;51.174;4.438;2022-07-25T03:59:23;23.10;99.90
26081;DHT22;13991;51.174;4.438;2022-07-25T04:01:49;23.10;99.40
26081;DHT22;13991;51.174;4.438;2022-07-25T04:04:15;23.00;99.00
26081;DHT22;13991;51.174;4.438;2022-07-25T04:06:41;23.00;98.90
26081;DHT22;13991;51.174;4.438;2022-07-25T04:09:08;23.00;98.60
26081;DHT22;13991;51.174;4.438;2022-07-25T04:11:34;23.10;97.80
26081;DHT22;13991;51.174;4.438;2022-07-25T04:14:03;23.00;97.30
26081;DHT22;13991;51.174;4.438;2022-07-25T04:16:29;22.90;96.80
26081;DHT22;13991;51.174;4.438;2022-07-25T04:18:55;23.00;96.20
26081;DHT22;13991;51.174;4.438;2022-07-25T04:21:22;22.90;96.10
26081;DHT22;13991;51.174;4.438;2022-07-25T04:23:48;22.90;95.90
26081;DHT22;13991;51.174;4.438;2022-07-25T04:26:14;22.80;95.70
26081;DHT22;13991;51.174;4.438;2022-07-25T04:28:40;22.80;95.60
26081;DHT22;13991;51.174;4.438;2022-07-25T04:31:06;22.70;95.60
26081;DHT22;13991;51.174;4.438;2022-07-25T04:33:32;22.70;95.80
26081;DHT22;13991;51.174;4.438;2022-07-25T04:35:57;22.70;95.60
26081;DHT22;13991;51.174;4.438;2022-07-25T04:38:23;22.60;95.80
26081;DHT22;13991;51.174;4.438;2022-07-25T04:40:50;22.50;95.90
26081;DHT22;13991;51.174;4.438;2022-07-25T04:43:15;22.30;96.20
26081;DHT22;13991;51.174;4.438;2022-07-25T04:45:41;22.30;96.20
26081;DHT22;13991;51.174;4.438;2022-07-25T04:48:07;22.30;96.50
26081;DHT22;13991;51.174;4.438;2022-07-25T04:50:32;22.10;96.90
26081;DHT22;13991;51.174;4.438;2022-07-25T04:52:59;22.20;97.30
26081;DHT22;13991;51.174;4.438;2022-07-25T04:55:24;22.30;97.60
26081;DHT22;13991;51.174;4.438;2022-07-25T04:57:50;22.20;98.10
26081;DHT22;13991;51.174;4.438;2022-07-25T05:00:16;22.20;98.60
26081;DHT22;13991;51.174;4.438;2022-07-25T05:02:42;22.00;99.50
26081;DHT22;13991;51.174;4.438;2022-07-25T05:05:08;21.90;99.90
26081;DHT22;13991;51.174;4.438;2022-07-25T05:07:37;21.90;99.90
26081;DHT22;13991;51.174;4.438;2022-07-25T05:10:03;21.80;99.90
26081;DHT22;13991;51.174;4.438;2022-07-25T05:12:29;21.80;99.90
26081;DHT22;13991;51.174;4.438;2022-07-25T05:14:55;21.80;99.90
26081;DHT22;13991;51.174;4.438;2022-07-25T05:17:21;21.70;99.90
26081;DHT22;13991;51.174;4.438;2022-07-25T05:19:47;21.70;99.90
26081;DHT22;13991;51.174;4.438;2022-07-25T05:22:13;21.70;99.90
26081;DHT22;13991;51.174;4.438;2022-07-25T05:24:38;21.70;99.90
26081;DHT22;13991;51.174;4.438;2022-07-25T05:27:04;21.60;99.90
26081;DHT22;13991;51.174;4.438;2022-07-25T05:29:30;21.70;99.90
26081;DHT22;13991;51.174;4.438;2022-07-25T05:31:56;21.60;99.90
26081;DHT22;13991;51.174;4.438;2022-07-25T05:34:22;21.60;99.90
26081;DHT22;13991;51.174;4.438;2022-07-25T05:36:47;21.60;99.90
26081;DHT22;13991;51.174;4.438;2022-07-25T05:39:13;21.70;99.90
26081;DHT22;13991;51.174;4.438;2022-07-25T05:41:39;21.60;99.90
26081;DHT22;13991;51.174;4.438;2022-07-25T05:44:05;21.50;99.90
26081;DHT22;13991;51.174;4.438;2022-07-25T05:46:34;21.40;99.90
26081;DHT22;13991;51.174;4.438;2022-07-25T05:49:00;21.40;99.90
26081;DHT22;13991;51.174;4.438;2022-07-25T05:51:26;21.40;99.90
26081;DHT22;13991;51.174;4.438;2022-07-25T05:53:52;21.40;99.90
26081;DHT22;13991;51.174;4.438;2022-07-25T05:56:17;21.40;99.90
26081;DHT22;13991;51.174;4.438;2022-07-25T05:58:43;21.40;99.90
26081;DHT22;13991;51.174;4.438;2022-07-25T06:01:13;21.60;99.90
26081;DHT22;13991;51.174;4.438;2022-07-25T06:03:39;21.70;99.90
26081;DHT22;13991;51.174;4.438;2022-07-25T06:06:05;21.90;99.90
26081;DHT22;13991;51.174;4.438;2022-07-25T06:08:33;21.70;99.90
26081;DHT22;13991;51.174;4.438;2022-07-25T06:10:59;21.60;99.90
26081;DHT22;13991;51.174;4.438;2022-07-25T06:13:26;21.50;99.90
26081;DHT22;13991;51.174;4.438;2022-07-25T06:15:52;21.50;99.90
26081;DHT22;13991;51.174;4.438;2022-07-25T06:18:18;21.50;99.90
26081;DHT22;13991;51.174;4.438;2022-07-25T06:20:44;21.60;99.90
26081;DHT22;13991;51.174;4.438;2022-07-25T06:23:10;21.70;99.90
26081;DHT22;13991;51.174;4.438;2022-07-25T06:25:36;21.80;99.90
26081;DHT22;13991;51.174;4.438;2022-07-25T06:28:01;21.90;99.90
26081;DHT22;13991;51.174;4.438;2022-07-25T06:30:27;21.90;99.90
26081;DHT22;13991;51.174;4.438;2022-07-25T06:32:53;21.90;99.90
26081;DHT22;13991;51.174;4.438;2022-07-25T06:35:18;21.80;99.90
26081;DHT22;13991;51.174;4.438;2022-07-25T06:37:44;22.00;99.90
26081;DHT22;13991;51.174;4.438;2022-07-25T06:40:10;22.10;99.90
26081;DHT22;13991;51.174;4.438;2022-07-25T06:42:43;21.90;99.90
26081;DHT22;13991;51.174;4.438;2022-07-25T06:45:10;21.90;99.90
26081;DHT22;13991;51.174;4.438;2022-07-25T06:47:38;21.90;99.90
26081;DHT22;13991;51.174;4.438;2022-07-25T06:50:07;21.60;99.90
26081;DHT22;13991;51.174;4.438;2022-07-25T06:52:34;21.50;99.90
26081;DHT22;13991;51.174;4.438;2022-07-25T06:55:00;21.40;99.90
26081;DHT22;13991;51.174;4.438;2022-07-25T06:57:26;21.40;99.90
26081;DHT22;13991;51.174;4.438;2022-07-25T06:59:51;21.60;99.90
26081;DHT22;13991;51.174;4.438;2022-07-25T07:02:17;21.80;99.90
26081;DHT22;13991;51.174;4.438;2022-07-25T07:04:43;22.10;99.90
26081;DHT22;13991;51.174;4.438;2022-07-25T07:07:08;22.10;99.90
26081;DHT22;13991;51.174;4.438;2022-07-25T07:09:35;22.00;99.90
26081;DHT22;13991;51.174;4.438;2022-07-25T07:12:01;22.10;99.90
26081;DHT22;13991;51.174;4.438;2022-07-25T07:14:27;22.20;99.90
26081;DHT22;13991;51.174;4.438;2022-07-25T07:16:52;22.10;99.90
26081;DHT22;13991;51.174;4.438;2022-07-25T07:19:18;22.10;99.90
26081;DHT22;13991;51.174;4.438;2022-07-25T07:21:44;22.10;99.90
26081;DHT22;13991;51.174;4.438;2022-07-25T07:24:10;22.20;99.90
26081;DHT22;13991;51.174;4.438;2022-07-25T07:26:36;22.10;99.90
26081;DHT22;13991;51.174;4.438;2022-07-25T07:29:01;22.30;99.90
26081;DHT22;13991;51.174;4.438;2022-07-25T07:31:28;22.30;99.90
26081;DHT22;13991;51.174;4.438;2022-07-25T07:33:54;22.30;99.90
26081;DHT22;13991;51.174;4.438;2022-07-25T07:36:22;22.30;99.90
26081;DHT22;13991;51.174;4.438;2022-07-25T07:38:47;22.10;99.90
26081;DHT22;13991;51.174;4.438;2022-07-25T07:41:14;22.40;99.90
26081;DHT22;13991;51.174;4.438;2022-07-25T07:43:40;22.40;99.90
26081;DHT22;13991;51.174;4.438;2022-07-25T07:46:06;22.40;99.90
26081;DHT22;13991;51.174;4.438;2022-07-25T07:48:32;22.60;99.90
26081;DHT22;13991;51.174;4.438;2022-07-25T07:51:00;22.70;99.90
26081;DHT22;13991;51.174;4.438;2022-07-25T07:53:28;22.60;99.90
26081;DHT22;13991;51.174;4.438;2022-07-25T07:56:21;22.60;99.90
26081;DHT22;13991;51.174;4.438;2022-07-25T07:58:50;22.60;99.90
26081;DHT22;13991;51.174;4.438;2022-07-25T08:01:16;22.70;99.90
26081;DHT22;13991;51.174;4.438;2022-07-25T08:03:41;22.70;99.90
26081;DHT22;13991;51.174;4.438;2022-07-25T08:06:07;22.70;99.90
26081;DHT22;13991;51.174;4.438;2022-07-25T08:08:33;22.80;99.90
26081;DHT22;13991;51.174;4.438;2022-07-25T08:10:59;22.80;99.90
26081;DHT22;13991;51.174;4.438;2022-07-25T08:13:27;22.90;99.90
26081;DHT22;13991;51.174;4.438;2022-07-25T08:15:55;23.10;99.90
26081;DHT22;13991;51.174;4.438;2022-07-25T08:18:23;23.20;99.90
26081;DHT22;13991;51.174;4.438;2022-07-25T08:20:49;23.30;99.90
26081;DHT22;13991;51.174;4.438;2022-07-25T08:23:16;23.50;99.90
26081;DHT22;13991;51.174;4.438;2022-07-25T08:25:42;23.90;99.90
26081;DHT22;13991;51.174;4.438;2022-07-25T08:28:08;24.10;99.90
26081;DHT22;13991;51.174;4.438;2022-07-25T08:30:35;24.00;99.90
26081;DHT22;13991;51.174;4.438;2022-07-25T08:33:04;23.80;99.90
26081;DHT22;13991;51.174;4.438;2022-07-25T08:35:32;23.80;99.90
26081;DHT22;13991;51.174;4.438;2022-07-25T08:37:58;23.80;99.90
26081;DHT22;13991;51.174;4.438;2022-07-25T08:40:26;23.70;99.90
26081;DHT22;13991;51.174;4.438;2022-07-25T08:42:52;23.90;99.90
26081;DHT22;13991;51.174;4.438;2022-07-25T08:45:23;24.00;99.90
26081;DHT22;13991;51.174;4.438;2022-07-25T08:47:50;24.20;99.90
26081;DHT22;13991;51.174;4.438;2022-07-25T08:50:18;24.00;99.90
26081;DHT22;13991;51.174;4.438;2022-07-25T08:52:48;24.00;99.90
26081;DHT22;13991;51.174;4.438;2022-07-25T08:55:16;24.30;99.90
26081;DHT22;13991;51.174;4.438;2022-07-25T08:57:46;24.40;99.90
26081;DHT22;13991;51.174;4.438;2022-07-25T09:00:15;24.30;99.90
26081;DHT22;13991;51.174;4.438;2022-07-25T09:02:41;24.30;99.90
26081;DHT22;13991;51.174;4.438;2022-07-25T09:05:08;24.40;99.90
26081;DHT22;13991;51.174;4.438;2022-07-25T09:10:20;24.30;99.90
26081;DHT22;13991;51.174;4.438;2022-07-25T09:12:56;24.20;99.90
26081;DHT22;13991;51.174;4.438;2022-07-25T09:15:34;24.10;99.90
26081;DHT22;13991;51.174;4.438;2022-07-25T09:18:02;24.00;99.90
26081;DHT22;13991;51.174;4.438;2022-07-25T09:20:44;24.10;99.90
26081;DHT22;13991;51.174;4.438;2022-07-25T09:23:13;24.30;99.90
26081;DHT22;13991;51.174;4.438;2022-07-25T09:25:41;24.10;99.90
26081;DHT22;13991;51.174;4.438;2022-07-25T09:28:15;24.10;99.90
26081;DHT22;13991;51.174;4.438;2022-07-25T09:30:56;24.30;99.90
26081;DHT22;13991;51.174;4.438;2022-07-25T09:33:23;24.50;99.90
26081;DHT22;13991;51.174;4.438;2022-07-25T09:35:49;24.60;99.90
26081;DHT22;13991;51.174;4.438;2022-07-25T09:38:17;24.90;99.90
26081;DHT22;13991;51.174;4.438;2022-07-25T09:40:54;25.40;99.90
26081;DHT22;13991;51.174;4.438;2022-07-25T09:43:21;25.50;99.90
26081;DHT22;13991;51.174;4.438;2022-07-25T09:45:48;25.20;99.90
26081;DHT22;13991;51.174;4.438;2022-07-25T09:48:21;24.70;99.90
26081;DHT22;13991;51.174;4.438;2022-07-25T09:50:50;24.40;99.90
26081;DHT22;13991;51.174;4.438;2022-07-25T09:53:22;24.50;99.90
26081;DHT22;13991;51.174;4.438;2022-07-25T09:55:47;24.40;99.90
26081;DHT22;13991;51.174;4.438;2022-07-25T09:58:13;24.30;99.90
26081;DHT22;13991;51.174;4.438;2022-07-25T10:00:40;24.20;99.90
26081;DHT22;13991;51.174;4.438;2022-07-25T10:03:23;24.10;99.90
26081;DHT22;13991;51.174;4.438;2022-07-25T10:05:59;24.20;99.90
26081;DHT22;13991;51.174;4.438;2022-07-25T10:08:27;24.10;99.90
26081;DHT22;13991;51.174;4.438;2022-07-25T10:10:53;24.10;99.90
26081;DHT22;13991;51.174;4.438;2022-07-25T10:13:31;24.20;99.90
26081;DHT22;13991;51.174;4.438;2022-07-25T10:15:58;24.40;99.90
26081;DHT22;13991;51.174;4.438;2022-07-25T10:18:29;24.50;99.90
26081;DHT22;13991;51.174;4.438;2022-07-25T10:21:11;24.40;99.90
26081;DHT22;13991;51.174;4.438;2022-07-25T10:23:37;24.40;99.90
26081;DHT22;13991;51.174;4.438;2022-07-25T10:26:10;24.40;99.90
26081;DHT22;13991;51.174;4.438;2022-07-25T10:28:42;24.30;99.90
26081;DHT22;13991;51.174;4.438;2022-07-25T10:34:55;24.40;99.90
26081;DHT22;13991;51.174;4.438;2022-07-25T10:37:26;24.30;99.90
26081;DHT22;13991;51.174;4.438;2022-07-25T10:39:53;24.30;99.90
26081;DHT22;13991;51.174;4.438;2022-07-25T10:42:21;24.10;99.90
26081;DHT22;13991;51.174;4.438;2022-07-25T10:44:48;23.90;99.90
26081;DHT22;13991;51.174;4.438;2022-07-25T10:47:16;23.90;99.90
26081;DHT22;13991;51.174;4.438;2022-07-25T10:49:43;23.70;99.90
26081;DHT22;13991;51.174;4.438;2022-07-25T10:52:15;23.80;99.90
26081;DHT22;13991;51.174;4.438;2022-07-25T10:54:52;23.80;99.90
26081;DHT22;13991;51.174;4.438;2022-07-25T10:57:18;23.60;99.90
26081;DHT22;13991;51.174;4.438;2022-07-25T10:59:43;23.70;99.90
26081;DHT22;13991;51.174;4.438;2022-07-25T11:02:10;23.90;99.90
26081;DHT22;13991;51.174;4.438;2022-07-25T11:04:41;23.90;99.90
26081;DHT22;13991;51.174;4.438;2022-07-25T11:07:15;23.80;99.90
26081;DHT22;13991;51.174;4.438;2022-07-25T11:09:55;24.00;99.90
26081;DHT22;13991;51.174;4.438;2022-07-25T11:12:21;24.10;99.90
26081;DHT22;13991;51.174;4.438;2022-07-25T11:14:47;24.20;99.90
26081;DHT22;13991;51.174;4.438;2022-07-25T11:17:18;24.10;99.90
26081;DHT22;13991;51.174;4.438;2022-07-25T11:20:06;24.10;99.90
26081;DHT22;13991;51.174;4.438;2022-07-25T11:22:32;24.20;99.90
26081;DHT22;13991;51.174;4.438;2022-07-25T11:24:59;24.20;99.90
26081;DHT22;13991;51.174;4.438;2022-07-25T11:27:26;24.30;99.90
26081;DHT22;13991;51.174;4.438;2022-07-25T11:30:04;24.30;99.90
26081;DHT22;13991;51.174;4.438;2022-07-25T11:32:40;24.40;99.90
26081;DHT22;13991;51.174;4.438;2022-07-25T11:35:07;24.40;99.90
26081;DHT22;13991;51.174;4.438;2022-07-25T11:37:36;24.40;99.90
26081;DHT22;13991;51.174;4.438;2022-07-25T11:40:03;24.40;99.90
26081;DHT22;13991;51.174;4.438;2022-07-25T11:42:38;24.40;99.90
26081;DHT22;13991;51.174;4.438;2022-07-25T11:45:28;24.40;99.90
26081;DHT22;13991;51.174;4.438;2022-07-25T11:48:12;24.40;99.90
26081;DHT22;13991;51.174;4.438;2022-07-25T11:50:44;24.60;99.90
26081;DHT22;13991;51.174;4.438;2022-07-25T11:53:12;24.70;99.90
26081;DHT22;13991;51.174;4.438;2022-07-25T11:55:42;24.80;99.90
26081;DHT22;13991;51.174;4.438;2022-07-25T11:58:10;25.00;99.90
26081;DHT22;13991;51.174;4.438;2022-07-25T12:00:42;25.30;99.90
26081;DHT22;13991;51.174;4.438;2022-07-25T12:03:10;25.80;99.90
26081;DHT22;13991;51.174;4.438;2022-07-25T12:05:36;25.90;99.90
26081;DHT22;13991;51.174;4.438;2022-07-25T12:08:10;25.90;99.90
26081;DHT22;13991;51.174;4.438;2022-07-25T12:10:37;25.90;99.40
26081;DHT22;13991;51.174;4.438;2022-07-25T12:13:04;26.10;99.50
26081;DHT22;13991;51.174;4.438;2022-07-25T12:15:39;26.20;99.60
26081;DHT22;13991;51.174;4.438;2022-07-25T12:18:06;25.90;99.00
26081;DHT22;13991;51.174;4.438;2022-07-25T12:20:36;25.80;99.30
26081;DHT22;13991;51.174;4.438;2022-07-25T12:23:04;25.60;99.90
26081;DHT22;13991;51.174;4.438;2022-07-25T12:25:34;25.60;99.90
26081;DHT22;13991;51.174;4.438;2022-07-25T12:28:00;25.70;99.90
26081;DHT22;13991;51.174;4.438;2022-07-25T12:30:27;25.70;99.30
26081;DHT22;13991;51.174;4.438;2022-07-25T12:32:54;25.60;98.90
26081;DHT22;13991;51.174;4.438;2022-07-25T12:35:20;25.50;99.10
26081;DHT22;13991;51.174;4.438;2022-07-25T12:37:46;25.60;98.10
26081;DHT22;13991;51.174;4.438;2022-07-25T12:40:12;25.80;97.90
26081;DHT22;13991;51.174;4.438;2022-07-25T12:42:38;25.80;96.80
26081;DHT22;13991;51.174;4.438;2022-07-25T12:45:09;26.00;97.50
26081;DHT22;13991;51.174;4.438;2022-07-25T12:47:36;26.30;97.30
26081;DHT22;13991;51.174;4.438;2022-07-25T12:50:03;26.60;96.80
26081;DHT22;13991;51.174;4.438;2022-07-25T12:52:29;26.50;95.70
26081;DHT22;13991;51.174;4.438;2022-07-25T12:54:55;26.50;94.80
26081;DHT22;13991;51.174;4.438;2022-07-25T12:57:21;26.50;95.20
26081;DHT22;13991;51.174;4.438;2022-07-25T12:59:46;26.30;93.70
26081;DHT22;13991;51.174;4.438;2022-07-25T13:02:12;25.80;94.90
26081;DHT22;13991;51.174;4.438;2022-07-25T13:04:38;26.00;95.10
26081;DHT22;13991;51.174;4.438;2022-07-25T13:07:04;26.20;94.50
26081;DHT22;13991;51.174;4.438;2022-07-25T13:09:30;26.20;93.60
26081;DHT22;13991;51.174;4.438;2022-07-25T13:11:56;26.10;93.50
26081;DHT22;13991;51.174;4.438;2022-07-25T13:14:22;25.60;93.70
26081;DHT22;13991;51.174;4.438;2022-07-25T13:16:48;25.30;95.20
26081;DHT22;13991;51.174;4.438;2022-07-25T13:19:15;25.30;95.00
26081;DHT22;13991;51.174;4.438;2022-07-25T13:21:41;25.50;94.90
26081;DHT22;13991;51.174;4.438;2022-07-25T13:24:08;25.60;93.80
26081;DHT22;13991;51.174;4.438;2022-07-25T13:26:34;25.80;93.60
26081;DHT22;13991;51.174;4.438;2022-07-25T13:29:00;26.30;93.40
26081;DHT22;13991;51.174;4.438;2022-07-25T13:31:26;26.40;93.10
26081;DHT22;13991;51.174;4.438;2022-07-25T13:33:52;26.40;92.10
26081;DHT22;13991;51.174;4.438;2022-07-25T13:36:17;26.50;91.90
26081;DHT22;13991;51.174;4.438;2022-07-25T13:38:44;26.70;91.70
26081;DHT22;13991;51.174;4.438;2022-07-25T13:41:11;26.70;91.60
26081;DHT22;13991;51.174;4.438;2022-07-25T13:43:37;26.50;91.30
26081;DHT22;13991;51.174;4.438;2022-07-25T13:46:03;26.40;91.60
26081;DHT22;13991;51.174;4.438;2022-07-25T13:48:28;26.30;91.50
26081;DHT22;13991;51.174;4.438;2022-07-25T13:50:55;26.50;90.90
26081;DHT22;13991;51.174;4.438;2022-07-25T13:53:21;26.50;90.50
26081;DHT22;13991;51.174;4.438;2022-07-25T13:55:48;26.60;88.50
26081;DHT22;13991;51.174;4.438;2022-07-25T13:58:13;26.50;86.60
26081;DHT22;13991;51.174;4.438;2022-07-25T14:00:39;26.60;87.60
26081;DHT22;13991;51.174;4.438;2022-07-25T14:03:05;26.60;87.10
26081;DHT22;13991;51.174;4.438;2022-07-25T14:05:30;26.20;87.20
26081;DHT22;13991;51.174;4.438;2022-07-25T14:07:58;26.30;87.90
26081;DHT22;13991;51.174;4.438;2022-07-25T14:10:24;26.50;88.60
26081;DHT22;13991;51.174;4.438;2022-07-25T14:12:50;26.40;88.30
26081;DHT22;13991;51.174;4.438;2022-07-25T14:15:15;26.60;88.70
26081;DHT22;13991;51.174;4.438;2022-07-25T14:17:42;26.30;89.80
26081;DHT22;13991;51.174;4.438;2022-07-25T14:20:08;25.80;88.20
26081;DHT22;13991;51.174;4.438;2022-07-25T14:22:34;25.70;89.30
26081;DHT22;13991;51.174;4.438;2022-07-25T14:25:00;25.80;90.30
26081;DHT22;13991;51.174;4.438;2022-07-25T14:27:26;25.80;87.70
26081;DHT22;13991;51.174;4.438;2022-07-25T14:29:52;26.00;88.10
26081;DHT22;13991;51.174;4.438;2022-07-25T14:32:18;26.30;86.90
26081;DHT22;13991;51.174;4.438;2022-07-25T14:34:44;26.50;85.90
26081;DHT22;13991;51.174;4.438;2022-07-25T14:37:10;26.60;84.10
26081;DHT22;13991;51.174;4.438;2022-07-25T14:39:36;26.60;82.70
26081;DHT22;13991;51.174;4.438;2022-07-25T14:42:02;26.60;82.50
26081;DHT22;13991;51.174;4.438;2022-07-25T14:44:29;26.70;82.10
26081;DHT22;13991;51.174;4.438;2022-07-25T14:46:55;26.60;82.40
26081;DHT22;13991;51.174;4.438;2022-07-25T14:49:22;26.40;82.90
26081;DHT22;13991;51.174;4.438;2022-07-25T14:51:48;25.90;84.10
26081;DHT22;13991;51.174;4.438;2022-07-25T14:54:14;25.70;86.20
26081;DHT22;13991;51.174;4.438;2022-07-25T14:56:43;25.60;87.40
26081;DHT22;13991;51.174;4.438;2022-07-25T14:59:09;25.60;88.00
26081;DHT22;13991;51.174;4.438;2022-07-25T15:01:35;25.30;88.50
26081;DHT22;13991;51.174;4.438;2022-07-25T15:04:01;25.30;89.20
26081;DHT22;13991;51.174;4.438;2022-07-25T15:06:27;25.20;89.60
26081;DHT22;13991;51.174;4.438;2022-07-25T15:08:53;25.20;89.70
26081;DHT22;13991;51.174;4.438;2022-07-25T15:11:20;25.30;89.00
26081;DHT22;13991;51.174;4.438;2022-07-25T15:13:46;25.10;89.80
26081;DHT22;13991;51.174;4.438;2022-07-25T15:16:13;25.20;88.80
26081;DHT22;13991;51.174;4.438;2022-07-25T15:18:40;25.10;89.50
26081;DHT22;13991;51.174;4.438;2022-07-25T15:21:06;24.90;89.40
26081;DHT22;13991;51.174;4.438;2022-07-25T15:23:31;24.90;89.20
26081;DHT22;13991;51.174;4.438;2022-07-25T15:25:57;24.90;89.10
26081;DHT22;13991;51.174;4.438;2022-07-25T15:28:24;24.70;89.00
26081;DHT22;13991;51.174;4.438;2022-07-25T15:30:50;25.00;89.50
26081;DHT22;13991;51.174;4.438;2022-07-25T15:33:17;24.90;88.20
26081;DHT22;13991;51.174;4.438;2022-07-25T15:35:43;24.90;89.30